createdAt,value
2019-06-10T00:00:53.429Z,7.73
2019-06-10T00:03:22.773Z,7.10
2019-06-10T00:05:52.114Z,7.63
2019-06-10T00:08:21.532Z,7.60
2019-06-10T00:10:51.201Z,6.60
2019-06-10T00:13:21.006Z,6.87
2019-06-10T00:15:51.568Z,7.30
2019-06-10T00:18:35.348Z,7.60
2019-06-10T00:20:52.222Z,7.40
2019-06-10T00:23:21.584Z,8.57
2019-06-10T00:25:51.603Z,7.93
2019-06-10T00:28:21.754Z,7.70
2019-06-10T00:30:51.693Z,7.70
2019-06-10T00:33:21.674Z,7.63
2019-06-10T00:35:51.599Z,8.00
2019-06-10T00:38:21.531Z,8.30
2019-06-10T00:40:51.441Z,7.83
2019-06-10T00:43:21.508Z,8.53
2019-06-10T00:45:51.518Z,8.70
2019-06-10T00:48:26.157Z,9.40
2019-06-10T00:50:52.091Z,9.37
2019-06-10T00:53:21.505Z,9.43
2019-06-10T00:55:51.699Z,11.27
2019-06-10T00:58:21.744Z,11.43
2019-06-10T01:00:51.799Z,9.97
2019-06-10T01:03:21.293Z,10.53
2019-06-10T01:05:50.979Z,10.20
2019-06-10T01:08:21.435Z,11.30
2019-06-10T01:10:52.312Z,10.37
2019-06-10T01:13:21.848Z,11.30
2019-06-10T01:15:51.343Z,11.67
2019-06-10T01:18:34.842Z,10.97
2019-06-10T01:20:52.028Z,12.00
2019-06-10T01:23:22.041Z,14.20
2019-06-10T01:25:51.415Z,11.77
2019-06-10T01:28:22.000Z,11.47
2019-06-10T01:30:51.832Z,11.20
2019-06-10T01:33:21.428Z,11.47
2019-06-10T01:35:51.523Z,11.73
2019-06-10T01:38:21.378Z,11.33
2019-06-10T01:40:51.109Z,12.17
2019-06-10T01:43:21.367Z,11.53
2019-06-10T01:45:51.235Z,12.23
2019-06-10T01:48:21.084Z,11.50
2019-06-10T01:50:51.313Z,11.90
2019-06-10T01:53:22.060Z,11.60
2019-06-10T01:55:51.943Z,11.60
2019-06-10T01:58:23.587Z,10.93
2019-06-10T02:01:01.267Z,11.43
2019-06-10T02:03:31.413Z,11.50
2019-06-10T02:06:01.528Z,11.73
2019-06-10T02:08:31.612Z,11.33
2019-06-10T02:11:01.384Z,11.93
2019-06-10T02:13:32.683Z,12.77
2019-06-10T02:16:03.043Z,12.83
2019-06-10T02:18:32.495Z,12.43
2019-06-10T02:21:01.955Z,12.50
2019-06-10T02:23:31.790Z,12.40
2019-06-10T02:26:02.006Z,11.93
2019-06-10T02:28:32.139Z,12.37
2019-06-10T02:31:03.850Z,12.23
2019-06-10T02:33:36.417Z,12.63
2019-06-10T02:36:04.603Z,12.37
2019-06-10T02:38:39.424Z,12.33
2019-06-10T02:41:06.337Z,12.07
2019-06-10T02:43:37.901Z,12.60
2019-06-10T02:46:07.559Z,12.40
2019-06-10T02:48:36.975Z,12.00
2019-06-10T02:51:07.668Z,13.33
2019-06-10T02:53:37.923Z,12.13
2019-06-10T02:56:09.124Z,12.80
2019-06-10T02:58:40.042Z,12.93
2019-06-10T03:01:09.954Z,12.60
2019-06-10T03:03:45.821Z,14.07
2019-06-10T03:06:13.584Z,15.03
2019-06-10T03:08:43.724Z,12.37
2019-06-10T03:11:14.020Z,12.93
2019-06-10T03:13:43.832Z,16.00
2019-06-10T03:16:20.016Z,17.27
2019-06-10T03:18:52.401Z,17.13
2019-06-10T03:21:24.361Z,16.60
2019-06-10T03:23:53.092Z,16.10
2019-06-10T03:26:24.360Z,15.50
2019-06-10T03:28:53.656Z,16.03
2019-06-10T03:31:30.889Z,14.77
2019-06-10T03:33:54.758Z,15.40
2019-06-10T03:36:25.830Z,14.80
2019-06-10T03:38:55.765Z,13.40
2019-06-10T03:41:26.821Z,13.77
2019-06-10T03:43:56.293Z,13.37
2019-06-10T03:46:26.936Z,13.80
2019-06-10T03:48:56.849Z,13.80
2019-06-10T03:51:27.432Z,12.80
2019-06-10T03:53:57.349Z,13.13
2019-06-10T03:56:28.124Z,14.60
2019-06-10T03:58:57.635Z,12.83
2019-06-10T04:01:29.818Z,13.13
2019-06-10T04:03:58.533Z,11.13
2019-06-10T04:06:29.488Z,12.37
2019-06-10T04:08:59.095Z,11.73
2019-06-10T04:11:29.337Z,11.97
2019-06-10T04:13:59.607Z,12.13
2019-06-10T04:16:28.968Z,10.83
2019-06-10T04:18:58.348Z,11.50
2019-06-10T04:21:28.391Z,12.20
2019-06-10T04:23:57.833Z,11.30
2019-06-10T04:26:28.513Z,11.13
2019-06-10T04:28:58.275Z,10.97
2019-06-10T04:31:28.025Z,11.00
2019-06-10T04:33:57.432Z,11.33
2019-06-10T04:36:28.177Z,11.47
2019-06-10T04:38:58.472Z,10.50
2019-06-10T04:41:29.145Z,11.30
2019-06-10T04:43:58.582Z,12.17
2019-06-10T04:46:29.463Z,10.90
2019-06-10T04:48:58.973Z,11.30
2019-06-10T04:51:29.709Z,10.80
2019-06-10T04:53:59.182Z,11.93
2019-06-10T04:56:29.318Z,11.97
2019-06-10T04:58:59.612Z,10.77
2019-06-10T05:01:30.146Z,10.67
2019-06-10T05:03:59.542Z,11.43
2019-06-10T05:06:29.787Z,11.53
2019-06-10T05:08:59.220Z,10.93
2019-06-10T05:11:30.145Z,11.40
2019-06-10T05:13:59.658Z,10.43
2019-06-10T05:16:32.210Z,11.47
2019-06-10T05:19:00.132Z,9.93
2019-06-10T05:21:30.869Z,10.40
2019-06-10T05:24:02.910Z,8.87
2019-06-10T05:26:33.645Z,9.67
2019-06-10T05:29:03.391Z,7.60
2019-06-10T05:31:35.153Z,5.80
2019-06-10T05:34:03.873Z,6.90
2019-06-10T05:36:34.656Z,6.07
2019-06-10T05:39:05.555Z,5.67
2019-06-10T05:41:35.277Z,5.57
2019-06-10T05:44:04.723Z,6.37
2019-06-10T05:46:35.012Z,5.37
2019-06-10T05:49:04.620Z,5.63
2019-06-10T05:51:35.382Z,6.47
2019-06-10T05:54:05.041Z,5.40
2019-06-10T05:56:35.732Z,5.40
2019-06-10T05:59:05.144Z,6.37
2019-06-10T06:01:38.213Z,5.60
2019-06-10T06:04:05.774Z,5.47
2019-06-10T06:06:35.469Z,4.53
2019-06-10T06:09:06.879Z,4.57
2019-06-10T06:11:36.248Z,4.03
2019-06-10T06:14:06.762Z,4.00
2019-06-10T06:16:36.358Z,3.77
2019-06-10T06:19:05.758Z,4.43
2019-06-10T06:21:42.105Z,3.87
2019-06-10T06:24:06.217Z,4.20
2019-06-10T06:26:37.991Z,4.17
2019-06-10T06:29:06.663Z,3.98
2019-06-10T06:31:36.532Z,4.03
2019-06-10T06:34:07.035Z,3.93
2019-06-10T06:36:38.041Z,4.17
2019-06-10T06:39:08.870Z,4.00
2019-06-10T06:41:39.124Z,3.20
2019-06-10T06:44:08.679Z,3.33
2019-06-10T06:46:39.615Z,3.55
2019-06-10T06:49:09.149Z,3.10
2019-06-10T06:51:53.948Z,2.67
2019-06-10T06:54:09.616Z,2.90
2019-06-10T06:56:40.463Z,3.67
2019-06-10T06:59:10.074Z,3.37
2019-06-10T07:01:40.896Z,3.25
2019-06-10T07:04:13.033Z,2.90
2019-06-10T07:06:43.205Z,3.30
2019-06-10T07:09:13.659Z,3.50
2019-06-10T07:11:45.286Z,3.17
2019-06-10T07:14:14.956Z,3.35
2019-06-10T07:16:46.531Z,3.00
2019-06-10T07:19:15.413Z,3.22
2019-06-10T07:22:02.321Z,3.27
2019-06-10T07:24:15.879Z,2.70
2019-06-10T07:26:51.034Z,2.95
2019-06-10T07:29:17.007Z,2.37
2019-06-10T07:31:50.161Z,2.60
2019-06-10T07:34:17.478Z,2.60
2019-06-10T07:36:46.857Z,2.92
2019-06-10T07:39:16.249Z,3.30
2019-06-10T07:41:47.918Z,2.77
2019-06-10T07:44:16.708Z,2.60
2019-06-10T07:46:46.049Z,2.65
2019-06-10T07:49:15.381Z,3.00
2019-06-10T07:51:46.513Z,2.60
2019-06-10T07:54:15.808Z,2.85
2019-06-10T07:56:50.349Z,2.60
2019-06-10T07:59:16.290Z,3.02
2019-06-10T08:01:51.291Z,3.20
2019-06-10T08:04:17.111Z,2.70
2019-06-10T08:06:49.781Z,3.17
2019-06-10T08:09:17.671Z,3.17
2019-06-10T08:11:48.786Z,2.87
2019-06-10T08:14:18.265Z,2.90
2019-06-10T08:16:48.619Z,3.35
2019-06-10T08:19:33.358Z,3.08
2019-06-10T08:21:49.605Z,3.25
2019-06-10T08:24:19.075Z,3.30
2019-06-10T08:26:48.379Z,3.95
2019-06-10T08:29:17.909Z,2.85
2019-06-10T08:31:48.419Z,3.08
2019-06-10T08:34:18.385Z,2.80
2019-06-10T08:36:50.524Z,3.00
2019-06-10T08:39:18.799Z,2.72
2019-06-10T08:41:49.268Z,3.15
2019-06-10T08:44:18.806Z,3.20
2019-06-10T08:46:48.653Z,3.20
2019-06-10T08:49:18.221Z,3.12
2019-06-10T08:51:50.111Z,3.33
2019-06-10T08:54:18.721Z,3.00
2019-06-10T08:56:50.735Z,3.20
2019-06-10T08:59:19.148Z,3.08
2019-06-10T09:01:55.721Z,3.10
2019-06-10T09:04:19.612Z,3.30
2019-06-10T09:06:50.837Z,3.47
2019-06-10T09:09:22.458Z,3.22
2019-06-10T09:11:54.450Z,3.50
2019-06-10T09:14:23.400Z,3.47
2019-06-10T09:16:54.300Z,3.25
2019-06-10T09:19:23.965Z,3.40
2019-06-10T09:21:56.174Z,3.45
2019-06-10T09:24:24.454Z,3.50
2019-06-10T09:26:54.902Z,3.12
2019-06-10T09:29:24.540Z,3.22
2019-06-10T09:31:55.802Z,3.98
2019-06-10T09:34:24.956Z,2.95
2019-06-10T09:36:56.936Z,3.10
2019-06-10T09:39:25.386Z,2.98
2019-06-10T09:42:02.303Z,3.55
2019-06-10T09:44:25.847Z,3.27
2019-06-10T09:47:00.199Z,3.75
2019-06-10T09:49:29.392Z,3.02
2019-06-10T09:51:58.783Z,3.55
2019-06-10T09:54:28.165Z,3.40
2019-06-10T09:56:57.508Z,3.30
2019-06-10T09:59:26.887Z,3.20
2019-06-10T10:02:00.016Z,3.50
2019-06-10T10:04:27.290Z,3.08
2019-06-10T10:06:57.474Z,3.10
2019-06-10T10:09:26.982Z,3.30
2019-06-10T10:11:56.436Z,3.22
2019-06-10T10:14:25.790Z,3.25
2019-06-10T10:17:00.123Z,3.70
2019-06-10T10:19:26.502Z,4.65
2019-06-10T10:21:58.344Z,4.58
2019-06-10T10:24:26.887Z,5.05
2019-06-10T10:26:58.672Z,4.70
2019-06-10T10:29:27.280Z,4.40
2019-06-10T10:31:56.586Z,4.33
2019-06-10T10:34:25.962Z,4.70
2019-06-10T10:36:57.247Z,4.28
2019-06-10T10:39:27.031Z,3.27
2019-06-10T10:41:57.338Z,3.75
2019-06-10T10:44:26.909Z,4.05
2019-06-10T10:46:56.238Z,3.70
2019-06-10T10:49:25.604Z,3.52
2019-06-10T10:51:54.940Z,3.67
2019-06-10T10:54:32.847Z,3.47
2019-06-10T10:56:59.073Z,3.72
2019-06-10T10:59:26.501Z,3.58
2019-06-10T11:01:55.843Z,3.47
2019-06-10T11:04:25.307Z,3.50
2019-06-10T11:06:57.250Z,3.70
2019-06-10T11:09:27.033Z,3.50
2019-06-10T11:11:59.170Z,3.52
2019-06-10T11:14:29.670Z,3.75
2019-06-10T11:16:59.172Z,3.60
2019-06-10T11:19:28.587Z,3.70
2019-06-10T11:21:58.008Z,3.87
2019-06-10T11:24:36.654Z,3.92
2019-06-10T11:26:58.623Z,4.47
2019-06-10T11:29:27.914Z,3.60
2019-06-10T11:31:58.649Z,3.30
2019-06-10T11:34:29.071Z,3.72
2019-06-10T11:36:58.527Z,3.60
2019-06-10T11:39:27.928Z,3.70
2019-06-10T11:41:57.758Z,4.03
2019-06-10T11:44:27.302Z,3.80
2019-06-10T11:46:59.251Z,3.70
2019-06-10T11:49:27.766Z,3.60
2019-06-10T11:51:59.497Z,3.20
2019-06-10T11:54:28.192Z,3.12
2019-06-10T11:56:58.560Z,3.52
2019-06-10T11:59:28.661Z,3.75
2019-06-10T12:02:00.369Z,3.52
2019-06-10T12:04:29.083Z,3.80
2019-06-10T12:06:59.164Z,3.80
2019-06-10T12:09:28.545Z,3.70
2019-06-10T12:12:01.298Z,3.90
2019-06-10T12:14:28.968Z,4.00
2019-06-10T12:17:21.652Z,6.95
2019-06-10T12:19:29.458Z,4.47
2019-06-10T12:22:04.644Z,20.55
2019-06-10T12:24:33.132Z,5.17
2019-06-10T12:27:05.078Z,4.22
2019-06-10T12:29:33.275Z,4.58
2019-06-10T12:32:06.885Z,4.20
2019-06-10T12:34:33.734Z,4.33
2019-06-10T12:37:10.851Z,4.50
2019-06-10T12:39:35.037Z,4.08
2019-06-10T12:42:06.599Z,4.25
2019-06-10T12:44:36.167Z,4.22
2019-06-10T12:47:07.622Z,3.90
2019-06-10T12:49:36.614Z,4.00
2019-06-10T12:52:07.550Z,3.50
2019-06-10T12:54:37.130Z,3.67
2019-06-10T12:57:07.127Z,4.00
2019-06-10T12:59:36.634Z,3.58
2019-06-10T13:02:15.568Z,4.28
2019-06-10T13:04:37.148Z,3.35
2019-06-10T13:07:07.598Z,3.40
2019-06-10T13:09:39.922Z,3.40
2019-06-10T13:12:09.278Z,2.90
2019-06-10T13:14:38.681Z,2.92
2019-06-10T13:17:08.530Z,3.00
2019-06-10T13:19:37.885Z,3.33
2019-06-10T13:22:08.922Z,3.33
2019-06-10T13:24:38.365Z,3.02
2019-06-10T13:27:08.340Z,4.17
2019-06-10T13:29:37.757Z,3.80
2019-06-10T13:32:08.077Z,3.67
2019-06-10T13:34:37.522Z,4.10
2019-06-10T13:37:08.555Z,3.85
2019-06-10T13:39:38.011Z,4.20
2019-06-10T13:42:09.969Z,3.95
2019-06-10T13:44:38.670Z,4.00
2019-06-10T13:47:10.616Z,4.28
2019-06-10T13:49:39.108Z,3.85
2019-06-10T13:52:14.019Z,4.55
2019-06-10T13:54:42.062Z,4.00
2019-06-10T13:57:13.684Z,5.00
2019-06-10T13:59:46.163Z,5.40
2019-06-10T14:02:13.537Z,4.62
2019-06-10T14:04:42.940Z,4.65
2019-06-10T14:07:17.099Z,3.60
2019-06-10T14:09:43.360Z,2.92
2019-06-10T14:12:17.624Z,3.50
2019-06-10T14:14:43.911Z,3.25
2019-06-10T14:17:19.100Z,14.13
2019-06-10T14:19:44.424Z,3.60
2019-06-10T14:22:16.030Z,3.40
2019-06-10T14:24:44.973Z,3.50
2019-06-10T14:27:17.155Z,3.47
2019-06-10T14:29:45.367Z,4.12
2019-06-10T14:32:15.791Z,3.22
2019-06-10T14:34:45.254Z,3.72
2019-06-10T14:37:15.662Z,3.10
2019-06-10T14:39:45.717Z,3.33
2019-06-10T14:42:16.330Z,3.20
2019-06-10T14:44:45.839Z,3.67
2019-06-10T14:47:16.687Z,3.27
2019-06-10T14:49:46.162Z,3.50
2019-06-10T14:52:16.943Z,3.55
2019-06-10T14:54:47.389Z,3.37
2019-06-10T14:57:16.922Z,3.58
2019-06-10T14:59:46.307Z,3.40
2019-06-10T15:02:16.121Z,3.15
2019-06-10T15:04:46.689Z,4.08
2019-06-10T15:07:16.070Z,3.55
2019-06-10T15:09:45.385Z,3.83
2019-06-10T15:12:17.168Z,3.50
2019-06-10T15:14:45.858Z,4.20
2019-06-10T15:17:16.706Z,3.95
2019-06-10T15:19:46.641Z,3.83
2019-06-10T15:22:17.015Z,3.92
2019-06-10T15:24:46.515Z,4.10
2019-06-10T15:27:26.599Z,3.70
2019-06-10T15:29:47.035Z,3.70
2019-06-10T15:32:27.718Z,3.80
2019-06-10T15:34:47.562Z,4.05
2019-06-10T15:37:18.572Z,4.00
2019-06-10T15:39:47.994Z,4.47
2019-06-10T15:42:17.800Z,4.17
2019-06-10T15:44:52.372Z,3.90
2019-06-10T15:47:21.003Z,4.40
2019-06-10T15:49:49.505Z,4.37
2019-06-10T15:52:20.651Z,4.40
2019-06-10T15:54:52.452Z,5.53
2019-06-10T15:57:36.680Z,3.92
2019-06-10T15:59:52.244Z,3.83
2019-06-10T16:02:25.290Z,4.03
2019-06-10T16:04:52.878Z,4.17
2019-06-10T16:07:25.348Z,4.33
2019-06-10T16:09:53.526Z,4.10
2019-06-10T16:12:26.562Z,3.95
2019-06-10T16:14:54.019Z,4.35
2019-06-10T16:17:23.387Z,4.20
2019-06-10T16:19:53.187Z,3.95
2019-06-10T16:22:24.950Z,3.98
2019-06-10T16:24:53.819Z,4.08
2019-06-10T16:27:43.058Z,4.35
2019-06-10T16:29:57.681Z,4.60
2019-06-10T16:32:33.208Z,4.00
2019-06-10T16:35:09.201Z,4.08
2019-06-10T16:37:53.504Z,4.67
2019-06-10T16:40:24.244Z,4.60
2019-06-10T16:42:53.379Z,4.22
2019-06-10T16:45:30.163Z,4.33
2019-06-10T16:47:54.016Z,4.35
2019-06-10T16:50:25.435Z,4.37
2019-06-10T16:52:54.472Z,4.15
2019-06-10T16:55:25.396Z,4.42
2019-06-10T16:57:59.414Z,5.20
2019-06-10T17:00:27.636Z,4.92
2019-06-10T17:02:57.199Z,4.30
2019-06-10T17:05:28.884Z,5.12
2019-06-10T17:07:58.019Z,4.90
2019-06-10T17:10:29.545Z,5.70
2019-06-10T17:13:09.247Z,5.10
2019-06-10T17:15:38.654Z,5.00
2019-06-10T17:18:08.008Z,4.95
2019-06-10T17:20:37.431Z,5.23
2019-06-10T17:23:26.421Z,5.20
2019-06-10T17:25:55.764Z,4.95
2019-06-10T17:28:28.947Z,5.20
2019-06-10T17:30:57.517Z,5.77
2019-06-10T17:33:28.248Z,5.80
2019-06-10T17:35:58.074Z,5.95
2019-06-10T17:38:28.867Z,10.03
2019-06-10T17:40:58.541Z,6.20
2019-06-10T17:43:29.251Z,5.47
2019-06-10T17:45:58.776Z,5.60
2019-06-10T17:48:29.217Z,6.00
2019-06-10T17:50:58.759Z,6.20
2019-06-10T17:53:28.246Z,6.50
2019-06-10T17:55:57.642Z,6.30
2019-06-10T17:58:39.315Z,6.73
2019-06-10T18:00:58.094Z,6.67
2019-06-10T18:03:27.895Z,6.90
2019-06-10T18:05:58.375Z,8.60
2019-06-10T18:08:27.746Z,7.53
2019-06-10T18:10:57.521Z,6.87
2019-06-10T18:13:27.865Z,6.10
2019-06-10T18:15:57.445Z,6.67
2019-06-10T18:18:28.295Z,7.03
2019-06-10T18:20:57.922Z,7.03
2019-06-10T18:23:28.429Z,6.80
2019-06-10T18:25:57.956Z,7.97
2019-06-10T18:28:27.345Z,11.77
2019-06-10T18:30:56.720Z,8.13
2019-06-10T18:33:26.098Z,7.37
2019-06-10T18:35:55.515Z,6.80
2019-06-10T18:38:24.882Z,6.70
2019-06-10T18:40:54.247Z,7.70
2019-06-10T18:43:23.642Z,6.50
2019-06-10T18:45:53.516Z,7.13
2019-06-10T18:48:23.349Z,7.77
2019-06-10T18:50:53.442Z,7.80
2019-06-10T18:53:23.711Z,8.27
2019-06-10T18:55:54.855Z,8.33
2019-06-10T18:58:24.496Z,8.23
2019-06-10T19:01:03.514Z,7.70
2019-06-10T19:03:25.977Z,7.87
2019-06-10T19:05:55.750Z,7.70
2019-06-10T19:08:25.156Z,7.43
2019-06-10T19:10:54.485Z,7.70
2019-06-10T19:13:23.863Z,7.37
2019-06-10T19:15:53.361Z,7.60
2019-06-10T19:18:23.502Z,9.87
2019-06-10T19:20:53.618Z,10.03
2019-06-10T19:23:23.149Z,7.50
2019-06-10T19:25:52.822Z,7.63
2019-06-10T19:28:23.046Z,7.27
2019-06-10T19:30:53.389Z,6.80
2019-06-10T19:33:24.127Z,7.93
2019-06-10T19:35:53.577Z,7.03
2019-06-10T19:38:23.357Z,6.83
2019-06-10T19:40:53.924Z,6.60
2019-06-10T19:43:23.308Z,6.43
2019-06-10T19:45:53.107Z,6.33
2019-06-10T19:48:22.562Z,6.60
2019-06-10T19:50:53.852Z,6.00
2019-06-10T19:53:22.990Z,5.97
2019-06-10T19:55:53.298Z,5.80
2019-06-10T19:58:23.417Z,5.53
2019-06-10T20:00:54.393Z,5.20
2019-06-10T20:03:25.872Z,5.80
2019-06-10T20:05:55.297Z,5.20
2019-06-10T20:08:24.587Z,5.80
2019-06-10T20:10:53.973Z,12.43
2019-06-10T20:13:23.320Z,5.10
2019-06-10T20:15:52.813Z,5.23
2019-06-10T20:18:22.708Z,5.90
2019-06-10T20:20:54.045Z,5.30
2019-06-10T20:23:23.316Z,5.40
2019-06-10T20:25:52.885Z,3.80
2019-06-10T20:28:22.487Z,3.57
2019-06-10T20:30:53.025Z,3.30
2019-06-10T20:33:36.158Z,3.47
2019-06-10T20:36:06.918Z,3.10
2019-06-10T20:38:34.068Z,3.20
2019-06-10T20:41:03.417Z,4.87
2019-06-10T20:43:33.010Z,6.23
2019-06-10T20:46:05.613Z,5.63
2019-06-10T20:48:33.590Z,4.00
2019-06-10T20:51:03.379Z,3.50
2019-06-10T20:53:33.811Z,4.30
2019-06-10T20:56:03.957Z,4.70
2019-06-10T20:58:34.088Z,4.40
2019-06-10T21:01:04.675Z,4.60
2019-06-10T21:03:34.383Z,5.10
2019-06-10T21:06:05.051Z,5.47
2019-06-10T21:08:35.042Z,5.03
2019-06-10T21:11:04.390Z,5.80
2019-06-10T21:13:33.738Z,5.90
2019-06-10T21:16:03.976Z,6.43
2019-06-10T21:18:33.546Z,6.60
2019-06-10T21:21:02.893Z,6.90
2019-06-10T21:23:32.278Z,6.77
2019-06-10T21:26:02.836Z,6.07
2019-06-10T21:28:32.911Z,5.00
2019-06-10T21:31:02.980Z,5.00
2019-06-10T21:33:33.302Z,4.07
2019-06-10T21:36:03.879Z,3.90
2019-06-10T21:38:33.587Z,4.97
2019-06-10T21:41:03.402Z,5.20
2019-06-10T21:43:33.300Z,5.47
2019-06-10T21:46:03.827Z,5.00
2019-06-10T21:48:33.677Z,4.87
2019-06-10T21:51:03.090Z,4.70
2019-06-10T21:53:32.485Z,4.07
2019-06-10T21:56:01.803Z,4.40
2019-06-10T21:58:32.841Z,4.67
2019-06-10T22:01:12.050Z,3.43
2019-06-10T22:03:33.775Z,3.90
2019-06-10T22:06:03.144Z,4.00
2019-06-10T22:08:33.369Z,4.30
2019-06-10T22:11:03.308Z,5.03
2019-06-10T22:13:32.921Z,4.60
2019-06-10T22:16:03.259Z,4.30
2019-06-10T22:18:32.898Z,4.50
2019-06-10T22:21:02.871Z,4.73
2019-06-10T22:23:33.134Z,4.70
2019-06-10T22:26:03.006Z,4.70
2019-06-10T22:28:32.823Z,4.60
2019-06-10T22:31:17.970Z,4.60
2019-06-10T22:33:33.438Z,4.90
2019-06-10T22:36:02.804Z,5.40
2019-06-10T22:38:32.879Z,5.67
2019-06-10T22:41:03.181Z,5.23
2019-06-10T22:43:32.845Z,4.80
2019-06-10T22:46:03.985Z,4.63
2019-06-10T22:48:33.443Z,4.50
2019-06-10T22:51:02.777Z,4.60
2019-06-10T22:53:33.363Z,4.43
2019-06-10T22:56:03.126Z,4.57
2019-06-10T22:58:32.443Z,4.77
2019-06-10T23:01:04.018Z,4.43
2019-06-10T23:03:32.921Z,4.53
2019-06-10T23:06:02.716Z,4.33
2019-06-10T23:08:33.404Z,4.30
2019-06-10T23:11:03.049Z,4.30
2019-06-10T23:13:32.593Z,4.27
2019-06-10T23:16:02.547Z,4.53
2019-06-10T23:18:32.188Z,4.13
2019-06-10T23:21:04.041Z,4.70
2019-06-10T23:23:32.702Z,4.50
2019-06-10T23:26:02.894Z,4.67
2019-06-10T23:28:32.851Z,4.53
2019-06-10T23:31:05.261Z,4.60
2019-06-10T23:33:33.733Z,4.63
2019-06-10T23:36:03.983Z,5.20
2019-06-10T23:38:33.638Z,4.77
2019-06-10T23:41:03.751Z,4.63
2019-06-10T23:43:33.328Z,4.67
2019-06-10T23:46:04.337Z,5.00
2019-06-10T23:48:33.945Z,4.93
2019-06-10T23:51:04.885Z,4.33
2019-06-10T23:53:34.516Z,4.80
2019-06-10T23:56:05.165Z,4.80
2019-06-10T23:58:34.626Z,4.50
